Time;durP1;ratioP1;P1;durP2;ratioP2;P2;SDS_P1;SDS_P2;PMS_P1;PMS_P2;Temp;Humidity;BMP_temperature;BMP_pressure;BME280_temperature;BME280_humidity;BME280_pressure;Samples;Min_cycle;Max_cycle;Signal;HPM_P1;HPM_P2
2022/03/20 00:02:10;;;;;;;52.23;27.30;;;;;;;;;;769854;179;919404;-64
2022/03/20 00:04:35;;;;;;;45.00;25.57;;;;;;;;;;769271;177;919202;-63
2022/03/20 00:07:01;;;;;;;47.58;24.40;;;;;;;;;;781769;177;919841;-64
2022/03/20 00:09:27;;;;;;;47.20;26.43;;;;;;;;;;767114;179;1137633;-63
2022/03/20 00:11:52;;;;;;;46.50;25.90;;;;;;;;;;767207;180;918386;-63
2022/03/20 00:14:18;;;;;;;43.80;25.57;;;;;;;;;;779982;179;918092;-65
2022/03/20 00:16:44;;;;;;;52.20;25.37;;;;;;;;;;776383;179;919085;-63
2022/03/20 00:19:10;;;;;;;43.40;22.08;;;;;;;;;;774622;178;1022421;-65
2022/03/20 00:21:36;;;;;;;47.73;25.50;;;;;;;;;;783533;177;919111;-65
2022/03/20 00:24:02;;;;;;;44.73;25.37;;;;;;;;;;773752;177;1021590;-65
2022/03/20 00:26:27;;;;;;;47.30;25.85;;;;;;;;;;766566;182;919415;-64
2022/03/20 00:28:53;;;;;;;44.17;26.50;;;;;;;;;;775045;179;919457;-64
2022/03/20 00:31:19;;;;;;;50.37;27.17;;;;;;;;;;783269;176;919406;-65
2022/03/20 00:33:45;;;;;;;48.50;26.57;;;;;;;;;;775414;178;918973;-64
2022/03/20 00:36:11;;;;;;;52.70;26.53;;;;;;;;;;766895;182;918958;-63
2022/03/20 00:38:37;;;;;;;49.92;26.95;;;;;;;;;;774242;180;918927;-64
2022/03/20 00:41:02;;;;;;;51.13;27.13;;;;;;;;;;768239;181;920259;-63
2022/03/20 00:43:28;;;;;;;47.07;25.40;;;;;;;;;;771743;178;919270;-64
2022/03/20 00:45:54;;;;;;;40.73;23.87;;;;;;;;;;771199;180;919719;-65
2022/03/20 00:48:20;;;;;;;41.20;22.77;;;;;;;;;;765206;179;921246;-64
2022/03/20 00:50:46;;;;;;;46.03;23.77;;;;;;;;;;766890;179;919804;-65
2022/03/20 00:53:12;;;;;;;43.57;24.93;;;;;;;;;;777545;180;919335;-64
2022/03/20 00:55:38;;;;;;;51.03;25.60;;;;;;;;;;773541;180;919012;-64
2022/03/20 00:58:03;;;;;;;46.93;26.57;;;;;;;;;;771651;180;918685;-64
2022/03/20 01:00:32;;;;;;;43.60;24.67;;;;;;;;;;772416;178;918609;-63
2022/03/20 01:02:56;;;;;;;50.30;25.77;;;;;;;;;;782420;177;919629;-64
2022/03/20 01:05:21;;;;;;;56.30;30.87;;;;;;;;;;774650;179;918479;-64
2022/03/20 01:07:47;;;;;;;65.43;30.67;;;;;;;;;;768930;179;915285;-64
2022/03/20 01:10:13;;;;;;;52.03;28.97;;;;;;;;;;775915;179;915897;-64
2022/03/20 01:12:39;;;;;;;52.53;26.73;;;;;;;;;;766473;179;916035;-64
2022/03/20 01:15:06;;;;;;;43.93;27.07;;;;;;;;;;779089;179;920009;-64
2022/03/20 01:17:31;;;;;;;52.58;27.33;;;;;;;;;;782849;180;919607;-64
2022/03/20 01:19:57;;;;;;;52.33;29.37;;;;;;;;;;776786;180;919065;-64
2022/03/20 01:22:23;;;;;;;50.87;27.00;;;;;;;;;;770639;180;918172;-62
2022/03/20 01:24:49;;;;;;;48.27;28.27;;;;;;;;;;766948;179;917360;-63
2022/03/20 01:27:16;;;;;;;51.22;30.27;;;;;;;;;;779137;180;919605;-64
2022/03/20 01:29:41;;;;;;;49.10;26.57;;;;;;;;;;771051;179;916161;-64
2022/03/20 01:32:08;;;;;;;51.80;31.00;;;;;;;;;;766401;180;916955;-63
2022/03/20 01:34:33;;;;;;;64.00;30.70;;;;;;;;;;771494;179;916304;-63
2022/03/20 01:36:58;;;;;;;53.67;29.67;;;;;;;;;;764718;181;919247;-63
2022/03/20 01:39:24;;;;;;;60.37;32.80;;;;;;;;;;762586;180;919009;-64
2022/03/20 01:41:50;;;;;;;60.90;32.80;;;;;;;;;;773447;181;919136;-64
2022/03/20 01:44:16;;;;;;;53.33;32.47;;;;;;;;;;773475;175;920145;-64
2022/03/20 01:46:42;;;;;;;57.33;33.67;;;;;;;;;;777216;179;919159;-63
2022/03/20 01:49:08;;;;;;;71.93;36.20;;;;;;;;;;773754;179;920372;-64
2022/03/20 01:54:05;;;;;;;68.33;34.53;;;;;;;;;;777186;179;919691;-64
2022/03/20 01:56:33;;;;;;;54.47;31.47;;;;;;;;;;783606;177;919867;-64
2022/03/20 01:58:58;;;;;;;60.03;30.00;;;;;;;;;;777209;177;919333;-64
2022/03/20 02:01:23;;;;;;;60.53;28.90;;;;;;;;;;774887;178;920108;-64
2022/03/20 02:03:51;;;;;;;49.08;27.52;;;;;;;;;;780612;176;919472;-64
2022/03/20 02:06:15;;;;;;;53.97;30.67;;;;;;;;;;775853;181;1021624;-62
2022/03/20 02:08:41;;;;;;;51.10;29.30;;;;;;;;;;778265;177;919246;-65
2022/03/20 02:11:07;;;;;;;59.90;31.00;;;;;;;;;;762944;181;920057;-64
2022/03/20 02:13:32;;;;;;;54.03;29.87;;;;;;;;;;766641;178;920000;-65
2022/03/20 02:15:58;;;;;;;85.43;43.60;;;;;;;;;;781702;179;919518;-64
2022/03/20 02:18:24;;;;;;;80.78;41.85;;;;;;;;;;777677;179;919430;-65
2022/03/20 02:20:51;;;;;;;65.43;34.53;;;;;;;;;;769398;179;919140;-65
2022/03/20 02:23:16;;;;;;;55.90;32.87;;;;;;;;;;771593;180;919879;-65
2022/03/20 02:25:46;;;;;;;68.37;35.80;;;;;;;;;;767826;180;918942;-65
2022/03/20 02:28:11;;;;;;;76.30;35.20;;;;;;;;;;771365;179;918841;-65
2022/03/20 02:30:37;;;;;;;63.17;34.50;;;;;;;;;;770153;179;919420;-64
2022/03/20 02:33:03;;;;;;;62.03;34.03;;;;;;;;;;776220;179;919722;-66
2022/03/20 02:35:31;;;;;;;54.20;33.67;;;;;;;;;;763682;179;918943;-64
2022/03/20 02:37:55;;;;;;;64.87;36.80;;;;;;;;;;770339;180;919484;-63
2022/03/20 02:40:21;;;;;;;60.30;33.67;;;;;;;;;;787462;177;918510;-64
2022/03/20 02:42:48;;;;;;;75.37;34.80;;;;;;;;;;772109;180;1123474;-64
2022/03/20 02:45:12;;;;;;;67.37;35.90;;;;;;;;;;769273;180;918793;-64
2022/03/20 02:47:38;;;;;;;65.20;37.67;;;;;;;;;;776131;180;919304;-65
2022/03/20 02:50:04;;;;;;;59.63;36.73;;;;;;;;;;769897;180;919585;-63
2022/03/20 02:52:31;;;;;;;76.73;41.00;;;;;;;;;;776814;180;1021314;-63
2022/03/20 02:55:00;;;;;;;66.63;35.33;;;;;;;;;;771584;180;919089;-65
2022/03/20 02:57:24;;;;;;;66.20;38.47;;;;;;;;;;769149;178;919395;-63
2022/03/20 02:59:50;;;;;;;74.30;38.47;;;;;;;;;;768274;179;919027;-64
2022/03/20 03:02:16;;;;;;;59.63;35.00;;;;;;;;;;769399;178;919619;-63
2022/03/20 03:04:42;;;;;;;69.10;34.87;;;;;;;;;;776706;180;919422;-63
2022/03/20 03:07:08;;;;;;;58.43;32.60;;;;;;;;;;776343;179;920465;-63
2022/03/20 03:12:05;;;;;;;56.60;32.37;;;;;;;;;;765809;176;920267;-65
2022/03/20 03:17:03;;;;;;;61.13;33.50;;;;;;;;;;771135;177;921040;-63
2022/03/20 03:19:29;;;;;;;58.43;32.60;;;;;;;;;;770955;179;912491;-64
2022/03/20 03:21:55;;;;;;;64.47;35.07;;;;;;;;;;776584;179;919056;-65
2022/03/20 03:24:21;;;;;;;64.17;35.73;;;;;;;;;;776090;179;919599;-64
2022/03/20 03:26:46;;;;;;;64.87;35.23;;;;;;;;;;769758;179;919545;-64
2022/03/20 03:29:12;;;;;;;69.20;34.20;;;;;;;;;;774590;179;919225;-64
2022/03/20 03:31:38;;;;;;;63.03;34.20;;;;;;;;;;780211;179;918227;-63
2022/03/20 03:36:36;;;;;;;184.27;77.17;;;;;;;;;;769257;179;918453;-63
2022/03/20 03:39:01;;;;;;;98.40;55.10;;;;;;;;;;775445;180;918708;-63
2022/03/20 03:41:27;;;;;;;74.67;40.17;;;;;;;;;;770209;179;919969;-63
2022/03/20 03:43:53;;;;;;;73.20;37.93;;;;;;;;;;768016;179;1029945;-63
2022/03/20 03:46:19;;;;;;;60.50;33.05;;;;;;;;;;772159;179;918696;-61
2022/03/20 03:48:45;;;;;;;87.17;48.70;;;;;;;;;;767739;180;918881;-63
2022/03/20 03:51:11;;;;;;;110.32;52.97;;;;;;;;;;768969;179;918825;-63
2022/03/20 03:53:37;;;;;;;95.50;55.43;;;;;;;;;;768726;179;920519;-63
2022/03/20 03:56:03;;;;;;;74.43;40.93;;;;;;;;;;775833;180;928302;-63
2022/03/20 03:58:28;;;;;;;58.20;35.77;;;;;;;;;;776905;177;919251;-64
2022/03/20 04:00:54;;;;;;;72.43;38.03;;;;;;;;;;772713;177;922253;-63
2022/03/20 04:03:20;;;;;;;54.50;32.80;;;;;;;;;;780037;177;915883;-63
2022/03/20 04:05:47;;;;;;;50.83;33.77;;;;;;;;;;775116;177;916564;-63
2022/03/20 04:08:15;;;;;;;59.70;30.37;;;;;;;;;;774131;175;921391;-63
2022/03/20 04:10:38;;;;;;;62.90;32.00;;;;;;;;;;788078;178;914993;-63
2022/03/20 04:13:04;;;;;;;53.60;30.80;;;;;;;;;;773403;176;919656;-63
2022/03/20 04:15:32;;;;;;;54.60;34.73;;;;;;;;;;775778;179;918929;-64
2022/03/20 04:17:58;;;;;;;53.00;34.20;;;;;;;;;;770081;180;911906;-63
2022/03/20 04:20:21;;;;;;;51.10;28.00;;;;;;;;;;778368;180;1017381;-63
2022/03/20 04:25:19;;;;;;;51.60;28.63;;;;;;;;;;770479;181;913720;-63
2022/03/20 04:27:45;;;;;;;47.07;28.47;;;;;;;;;;771355;180;914631;-63
2022/03/20 04:30:11;;;;;;;54.63;30.23;;;;;;;;;;772174;180;915781;-63
2022/03/20 04:32:36;;;;;;;50.17;29.50;;;;;;;;;;770036;179;919832;-63
2022/03/20 04:35:02;;;;;;;58.03;32.33;;;;;;;;;;773866;180;923462;-63
2022/03/20 04:37:31;;;;;;;54.17;27.97;;;;;;;;;;777172;179;917022;-63
2022/03/20 04:39:54;;;;;;;59.33;32.77;;;;;;;;;;774998;179;916382;-62
2022/03/20 04:42:20;;;;;;;53.00;29.33;;;;;;;;;;766695;180;913054;-63
2022/03/20 04:44:46;;;;;;;43.67;27.60;;;;;;;;;;788655;177;939830;-62
2022/03/20 05:00:04;;;;;;;45.30;27.33;;;;;;;;;;782333;179;918684;-65
2022/03/20 05:02:29;;;;;;;47.07;27.17;;;;;;;;;;785032;177;918890;-64
2022/03/20 05:04:55;;;;;;;42.70;26.87;;;;;;;;;;769156;182;939327;-64
2022/03/20 05:07:21;;;;;;;53.10;27.23;;;;;;;;;;774475;180;920235;-64
2022/03/20 05:14:51;;;;;;;44.07;26.33;;;;;;;;;;763827;181;920038;-63
2022/03/20 05:17:17;;;;;;;58.60;28.20;;;;;;;;;;781162;179;918851;-63
2022/03/20 05:19:43;;;;;;;50.90;26.20;;;;;;;;;;780256;176;919094;-62
2022/03/20 05:22:11;;;;;;;47.85;27.13;;;;;;;;;;782203;178;919965;-62
2022/03/20 05:24:37;;;;;;;51.97;28.00;;;;;;;;;;779253;177;917656;-63
2022/03/20 05:27:02;;;;;;;47.43;27.70;;;;;;;;;;775224;180;917416;-63
2022/03/20 05:29:28;;;;;;;49.73;28.50;;;;;;;;;;773116;177;939778;-63
2022/03/20 05:31:54;;;;;;;47.97;26.90;;;;;;;;;;775496;179;918527;-63
2022/03/20 05:34:20;;;;;;;54.33;27.90;;;;;;;;;;776191;178;919140;-63
2022/03/20 05:36:46;;;;;;;45.63;27.90;;;;;;;;;;771214;180;919586;-62
2022/03/20 05:39:12;;;;;;;44.03;26.20;;;;;;;;;;768023;180;928166;-60
2022/03/20 05:41:47;;;;;;;48.33;28.47;;;;;;;;;;775744;178;914302;-62
2022/03/20 05:44:11;;;;;;;50.90;28.43;;;;;;;;;;770023;182;918911;-60
2022/03/20 05:46:35;;;;;;;54.13;31.97;;;;;;;;;;764981;178;920307;-60
2022/03/20 05:49:01;;;;;;;73.27;33.10;;;;;;;;;;777154;177;918868;-60
2022/03/20 05:51:27;;;;;;;58.10;31.93;;;;;;;;;;781369;177;918699;-61
2022/03/20 05:53:53;;;;;;;65.97;36.00;;;;;;;;;;771209;177;919766;-62
2022/03/20 05:58:50;;;;;;;183.18;85.22;;;;;;;;;;773659;179;925082;-59
2022/03/20 06:01:16;;;;;;;89.70;46.15;;;;;;;;;;773661;179;915802;-60
2022/03/20 06:03:42;;;;;;;150.77;74.97;;;;;;;;;;771894;179;950050;-60
2022/03/20 06:06:08;;;;;;;77.45;37.42;;;;;;;;;;776715;179;918451;-60
2022/03/20 06:08:35;;;;;;;76.40;48.40;;;;;;;;;;775877;180;883918;-60
2022/03/20 06:11:00;;;;;;;54.70;36.00;;;;;;;;;;769189;180;927010;-60
2022/03/20 06:13:26;;;;;;;56.53;31.37;;;;;;;;;;778060;178;1070790;-60
2022/03/20 06:15:51;;;;;;;45.73;26.03;;;;;;;;;;774133;179;919441;-60
2022/03/20 06:18:17;;;;;;;58.40;26.47;;;;;;;;;;777164;175;919359;-61
2022/03/20 06:20:45;;;;;;;41.53;25.53;;;;;;;;;;770611;179;919747;-62
2022/03/20 06:23:09;;;;;;;54.70;39.87;;;;;;;;;;778761;179;922451;-60
2022/03/20 06:25:35;;;;;;;41.30;26.03;;;;;;;;;;770375;179;921499;-61
2022/03/20 06:28:02;;;;;;;44.27;23.27;;;;;;;;;;765718;179;918553;-60
2022/03/20 06:30:27;;;;;;;43.53;25.33;;;;;;;;;;771073;177;920080;-62
2022/03/20 06:32:53;;;;;;;43.07;24.10;;;;;;;;;;780383;179;919728;-63
2022/03/20 06:35:18;;;;;;;45.17;22.70;;;;;;;;;;772530;179;931425;-62
2022/03/20 06:37:44;;;;;;;43.90;26.53;;;;;;;;;;770437;180;918866;-64
2022/03/20 06:40:10;;;;;;;44.00;26.70;;;;;;;;;;779789;180;633651;-62
2022/03/20 06:42:36;;;;;;;48.33;30.20;;;;;;;;;;775393;179;626620;-63
2022/03/20 06:45:03;;;;;;;56.75;29.37;;;;;;;;;;774199;178;916366;-64
2022/03/20 06:47:28;;;;;;;53.77;24.97;;;;;;;;;;773849;180;948655;-63
2022/03/20 06:49:55;;;;;;;44.23;27.23;;;;;;;;;;773955;179;919207;-62
2022/03/20 06:52:22;;;;;;;49.00;27.83;;;;;;;;;;775324;179;915215;-63
2022/03/20 06:54:48;;;;;;;70.20;39.67;;;;;;;;;;770493;179;917400;-63
2022/03/20 06:57:13;;;;;;;54.40;31.43;;;;;;;;;;783520;179;1020529;-63
2022/03/20 06:59:39;;;;;;;55.40;32.40;;;;;;;;;;770961;177;915108;-63
2022/03/20 07:02:05;;;;;;;53.93;31.90;;;;;;;;;;769041;180;916529;-63
2022/03/20 07:04:31;;;;;;;55.30;30.50;;;;;;;;;;776886;180;911623;-64
2022/03/20 07:06:58;;;;;;;59.70;31.37;;;;;;;;;;774192;180;917344;-64
2022/03/20 07:09:22;;;;;;;58.47;31.30;;;;;;;;;;773558;180;919541;-64
2022/03/20 07:11:48;;;;;;;87.90;42.53;;;;;;;;;;777369;179;919609;-64
2022/03/20 07:14:14;;;;;;;71.53;38.27;;;;;;;;;;773567;177;919036;-63
2022/03/20 07:16:43;;;;;;;58.73;31.13;;;;;;;;;;770739;179;919641;-65
2022/03/20 07:19:06;;;;;;;73.07;35.30;;;;;;;;;;774703;179;916008;-63
2022/03/20 07:21:32;;;;;;;54.27;28.20;;;;;;;;;;774361;178;915785;-63
2022/03/20 07:23:57;;;;;;;46.70;23.57;;;;;;;;;;770439;178;917064;-64
2022/03/20 07:31:26;;;;;;;64.10;32.50;;;;;;;;;;781667;178;940195;-62
2022/03/20 07:33:52;;;;;;;50.37;28.23;;;;;;;;;;770626;178;920379;-63
2022/03/20 07:36:19;;;;;;;62.60;31.37;;;;;;;;;;775477;178;916026;-62
2022/03/20 07:38:45;;;;;;;48.33;25.83;;;;;;;;;;777636;179;916161;-62
2022/03/20 07:41:10;;;;;;;82.33;36.70;;;;;;;;;;776713;179;918292;-62
2022/03/20 07:43:36;;;;;;;65.60;31.90;;;;;;;;;;774207;178;920318;-62
2022/03/20 07:46:02;;;;;;;43.10;23.87;;;;;;;;;;774937;179;919025;-64
2022/03/20 07:48:28;;;;;;;66.13;28.47;;;;;;;;;;776361;179;919098;-62
2022/03/20 07:50:54;;;;;;;64.23;34.87;;;;;;;;;;775040;178;919583;-62
2022/03/20 07:53:20;;;;;;;85.12;36.17;;;;;;;;;;774619;179;919255;-62
2022/03/20 07:55:46;;;;;;;53.13;32.87;;;;;;;;;;783663;178;920309;-63
2022/03/20 07:58:12;;;;;;;61.43;28.80;;;;;;;;;;774422;177;919647;-62
2022/03/20 08:00:38;;;;;;;45.97;23.10;;;;;;;;;;773000;179;919379;-60
2022/03/20 08:03:05;;;;;;;60.27;30.00;;;;;;;;;;777802;179;919597;-62
2022/03/20 08:05:29;;;;;;;44.30;26.40;;;;;;;;;;773251;179;919460;-62
2022/03/20 08:07:56;;;;;;;53.37;28.00;;;;;;;;;;773877;180;919570;-62
2022/03/20 08:10:21;;;;;;;52.53;26.63;;;;;;;;;;772525;180;919904;-63
2022/03/20 08:12:48;;;;;;;45.90;22.73;;;;;;;;;;778120;177;918593;-62
2022/03/20 08:15:15;;;;;;;34.80;19.43;;;;;;;;;;771920;179;626677;-62
2022/03/20 08:17:42;;;;;;;46.73;22.67;;;;;;;;;;786074;177;631163;-61
2022/03/20 08:20:09;;;;;;;51.87;22.10;;;;;;;;;;781139;179;884965;-62
2022/03/20 08:22:35;;;;;;;21.75;12.00;;;;;;;;;;776293;177;919339;-62
2022/03/20 08:25:00;;;;;;;21.37;11.70;;;;;;;;;;769495;179;920260;-64
2022/03/20 08:27:26;;;;;;;18.27;8.90;;;;;;;;;;775918;179;922148;-62
2022/03/20 08:29:52;;;;;;;22.93;9.97;;;;;;;;;;774235;179;919223;-62
2022/03/20 08:32:19;;;;;;;13.30;10.00;;;;;;;;;;778706;179;638704;-62
2022/03/20 08:34:44;;;;;;;12.07;7.83;;;;;;;;;;774977;179;1018690;-63
2022/03/20 08:37:13;;;;;;;17.43;9.53;;;;;;;;;;770028;180;916609;-62
2022/03/20 08:39:38;;;;;;;11.30;6.25;;;;;;;;;;769720;179;920226;-62
2022/03/20 08:42:05;;;;;;;16.33;8.60;;;;;;;;;;770298;179;919122;-63
2022/03/20 08:44:31;;;;;;;16.80;8.67;;;;;;;;;;778574;179;1070346;-60
2022/03/20 08:46:56;;;;;;;17.73;10.23;;;;;;;;;;772633;179;1021799;-61
2022/03/20 08:49:22;;;;;;;20.15;7.65;;;;;;;;;;769494;177;918763;-62
2022/03/20 08:51:48;;;;;;;8.47;6.53;;;;;;;;;;775299;180;919233;-61
2022/03/20 08:54:14;;;;;;;18.20;8.90;;;;;;;;;;771631;178;920220;-63
2022/03/20 08:56:40;;;;;;;13.07;8.70;;;;;;;;;;775871;179;645949;-62
2022/03/20 08:59:06;;;;;;;15.03;8.60;;;;;;;;;;782227;179;623892;-67
2022/03/20 09:01:32;;;;;;;12.53;7.70;;;;;;;;;;776472;179;626671;-64
2022/03/20 09:03:58;;;;;;;15.65;8.05;;;;;;;;;;773458;179;918423;-63
2022/03/20 09:06:24;;;;;;;15.03;8.07;;;;;;;;;;773992;179;918684;-62
2022/03/20 09:08:49;;;;;;;13.43;8.43;;;;;;;;;;781045;179;919408;-63
2022/03/20 09:11:15;;;;;;;13.40;7.37;;;;;;;;;;777611;178;919913;-63
2022/03/20 09:13:41;;;;;;;9.17;6.73;;;;;;;;;;768045;180;919299;-63
2022/03/20 09:21:13;;;;;;;15.50;8.40;;;;;;;;;;777654;177;895339;-62
2022/03/20 09:23:40;;;;;;;14.87;8.27;;;;;;;;;;771768;179;919139;-65
2022/03/20 09:26:07;;;;;;;12.83;7.63;;;;;;;;;;780174;179;1021575;-62
2022/03/20 09:28:34;;;;;;;12.73;8.77;;;;;;;;;;772185;179;919475;-62
2022/03/20 09:30:59;;;;;;;12.30;7.53;;;;;;;;;;770769;180;919340;-63
2022/03/20 09:33:27;;;;;;;15.83;9.40;;;;;;;;;;769470;180;1021585;-66
2022/03/20 09:35:51;;;;;;;10.80;6.80;;;;;;;;;;767212;182;1021578;-64
2022/03/20 09:38:18;;;;;;;9.50;7.10;;;;;;;;;;767796;180;1249480;-65
2022/03/20 09:40:43;;;;;;;11.07;6.73;;;;;;;;;;776155;179;913467;-63
2022/03/20 09:43:09;;;;;;;14.37;7.63;;;;;;;;;;778145;179;918872;-63
2022/03/20 09:45:35;;;;;;;10.60;5.90;;;;;;;;;;772213;179;918112;-61
2022/03/20 09:48:01;;;;;;;12.60;6.37;;;;;;;;;;774452;180;918725;-64
2022/03/20 09:50:27;;;;;;;14.40;7.40;;;;;;;;;;776376;177;879445;-62
2022/03/20 09:52:53;;;;;;;14.87;6.83;;;;;;;;;;779293;177;919670;-63
2022/03/20 09:55:19;;;;;;;9.20;6.17;;;;;;;;;;778882;176;920508;-65
2022/03/20 09:57:45;;;;;;;10.83;7.20;;;;;;;;;;773966;180;928409;-65
2022/03/20 10:00:11;;;;;;;11.93;6.67;;;;;;;;;;775878;180;919120;-65
2022/03/20 10:02:37;;;;;;;11.60;7.03;;;;;;;;;;766099;179;872367;-65
2022/03/20 10:05:04;;;;;;;12.15;6.78;;;;;;;;;;772249;179;1037368;-64
2022/03/20 10:07:30;;;;;;;10.50;6.70;;;;;;;;;;781629;179;625676;-64
2022/03/20 10:10:02;;;;;;;11.93;6.50;;;;;;;;;;777627;178;917654;-66
2022/03/20 10:12:30;;;;;;;10.17;6.60;;;;;;;;;;770108;180;919164;-65
2022/03/20 10:14:56;;;;;;;15.10;7.70;;;;;;;;;;773323;178;734598;-65
2022/03/20 10:17:22;;;;;;;8.70;6.40;;;;;;;;;;774131;180;1124230;-64
2022/03/20 10:19:48;;;;;;;8.50;5.43;;;;;;;;;;770376;177;914995;-65
2022/03/20 10:22:17;;;;;;;11.57;6.80;;;;;;;;;;776582;177;916270;-65
2022/03/20 10:24:41;;;;;;;13.23;6.00;;;;;;;;;;778658;179;917861;-64
2022/03/20 10:27:07;;;;;;;16.67;8.60;;;;;;;;;;775565;177;959238;-64
2022/03/20 10:29:33;;;;;;;10.80;6.97;;;;;;;;;;771675;177;912906;-66
2022/03/20 10:32:00;;;;;;;10.10;7.28;;;;;;;;;;769525;177;912672;-64
2022/03/20 10:34:27;;;;;;;12.57;6.00;;;;;;;;;;773978;177;919296;-66
2022/03/20 10:36:53;;;;;;;9.70;5.80;;;;;;;;;;768998;179;969375;-65
2022/03/20 10:39:19;;;;;;;11.45;6.82;;;;;;;;;;770225;179;918990;-65
2022/03/20 10:41:45;;;;;;;9.90;5.90;;;;;;;;;;777740;179;919311;-65
2022/03/20 10:44:13;;;;;;;10.60;5.80;;;;;;;;;;771154;179;1214016;-65
2022/03/20 10:46:38;;;;;;;7.33;5.43;;;;;;;;;;774036;179;919522;-66
2022/03/20 10:49:05;;;;;;;9.60;6.17;;;;;;;;;;778622;180;918885;-65
2022/03/20 10:51:38;;;;;;;14.50;7.70;;;;;;;;;;766845;180;1023409;-66
2022/03/20 10:54:07;;;;;;;11.43;7.10;;;;;;;;;;770598;179;920185;-66
2022/03/20 10:56:33;;;;;;;14.77;7.03;;;;;;;;;;775276;179;923197;-66
2022/03/20 10:59:00;;;;;;;9.57;6.07;;;;;;;;;;774411;179;1446340;-67
2022/03/20 11:01:37;;;;;;;8.13;6.00;;;;;;;;;;769414;179;918713;-66
2022/03/20 11:04:04;;;;;;;10.40;6.60;;;;;;;;;;768440;180;920795;-66
2022/03/20 11:06:30;;;;;;;10.87;6.97;;;;;;;;;;775999;178;919118;-68
2022/03/20 11:08:56;;;;;;;12.03;6.40;;;;;;;;;;777701;179;915861;-66
2022/03/20 11:11:23;;;;;;;12.30;8.23;;;;;;;;;;785276;177;667250;-65
2022/03/20 11:13:48;;;;;;;11.67;7.27;;;;;;;;;;770640;179;911780;-65
2022/03/20 11:16:13;;;;;;;13.40;6.90;;;;;;;;;;770051;179;919713;-65
2022/03/20 11:18:39;;;;;;;8.00;5.93;;;;;;;;;;777267;180;909897;-66
2022/03/20 11:21:05;;;;;;;13.50;6.63;;;;;;;;;;774930;180;721513;-65
2022/03/20 11:23:31;;;;;;;15.07;7.33;;;;;;;;;;771716;179;920071;-65
2022/03/20 11:25:57;;;;;;;16.13;7.70;;;;;;;;;;779175;180;634389;-66
2022/03/20 11:28:22;;;;;;;12.03;6.70;;;;;;;;;;774320;180;632870;-66
2022/03/20 11:30:48;;;;;;;10.20;7.40;;;;;;;;;;776223;178;915244;-65
2022/03/20 11:33:14;;;;;;;17.20;8.07;;;;;;;;;;779444;177;916277;-66
2022/03/20 11:35:40;;;;;;;13.57;7.83;;;;;;;;;;771898;179;919582;-65
2022/03/20 11:38:12;;;;;;;16.50;7.17;;;;;;;;;;769185;179;916042;-65
2022/03/20 11:40:41;;;;;;;10.90;6.43;;;;;;;;;;770857;179;928088;-68
2022/03/20 11:43:09;;;;;;;9.57;5.60;;;;;;;;;;775585;179;916465;-66
2022/03/20 11:45:35;;;;;;;12.40;7.03;;;;;;;;;;770112;179;919251;-68
2022/03/20 11:48:07;;;;;;;15.83;10.00;;;;;;;;;;769871;179;915455;-65
2022/03/20 11:50:39;;;;;;;15.80;7.20;;;;;;;;;;771804;179;916524;-66
2022/03/20 11:53:05;;;;;;;12.17;7.00;;;;;;;;;;776694;179;918567;-66
2022/03/20 11:55:36;;;;;;;8.83;6.53;;;;;;;;;;777127;177;921976;-66
2022/03/20 11:58:02;;;;;;;10.00;6.77;;;;;;;;;;767042;179;960001;-67
2022/03/20 12:00:28;;;;;;;19.63;13.10;;;;;;;;;;771494;179;916516;-66
2022/03/20 12:02:54;;;;;;;12.73;7.40;;;;;;;;;;781979;177;914078;-66
2022/03/20 12:05:36;;;;;;;10.60;7.05;;;;;;;;;;776349;177;915734;-67
2022/03/20 12:08:08;;;;;;;11.70;8.23;;;;;;;;;;772679;175;916589;-67
2022/03/20 12:10:35;;;;;;;12.30;7.20;;;;;;;;;;775587;179;919089;-67
2022/03/20 12:13:17;;;;;;;11.07;7.70;;;;;;;;;;775038;179;915882;-67
2022/03/20 12:15:43;;;;;;;9.80;6.97;;;;;;;;;;762684;178;946308;-67
2022/03/20 12:18:10;;;;;;;10.10;7.30;;;;;;;;;;776362;179;910562;-68
2022/03/20 12:20:40;;;;;;;14.40;7.73;;;;;;;;;;767675;179;944441;-66
2022/03/20 12:23:12;;;;;;;12.13;8.00;;;;;;;;;;770488;180;915588;-66
2022/03/20 12:25:42;;;;;;;11.90;7.53;;;;;;;;;;770847;176;917029;-66
2022/03/20 12:28:07;;;;;;;9.40;7.13;;;;;;;;;;784480;176;915065;-67
2022/03/20 12:30:33;;;;;;;7.87;6.00;;;;;;;;;;772398;181;720422;-66
2022/03/20 12:33:01;;;;;;;16.60;7.13;;;;;;;;;;765680;177;1016462;-66
2022/03/20 12:35:25;;;;;;;11.60;8.30;;;;;;;;;;782645;175;1398414;-67
2022/03/20 12:37:52;;;;;;;9.73;6.13;;;;;;;;;;771283;179;921770;-67
2022/03/20 12:40:18;;;;;;;10.30;5.83;;;;;;;;;;775170;178;929313;-67
2022/03/20 12:42:50;;;;;;;9.77;5.77;;;;;;;;;;772632;179;916032;-66
2022/03/20 12:45:16;;;;;;;14.03;8.30;;;;;;;;;;776595;179;914991;-65
2022/03/20 12:47:49;;;;;;;15.57;7.63;;;;;;;;;;765565;180;920683;-66
2022/03/20 12:50:15;;;;;;;11.37;6.80;;;;;;;;;;769294;180;961557;-66
2022/03/20 12:52:40;;;;;;;9.97;6.63;;;;;;;;;;769343;179;916887;-66
2022/03/20 12:55:07;;;;;;;16.30;5.90;;;;;;;;;;773475;179;922325;-65
2022/03/20 12:57:35;;;;;;;8.93;5.13;;;;;;;;;;767937;178;933943;-67
2022/03/20 13:00:07;;;;;;;9.40;5.50;;;;;;;;;;769818;179;919228;-66
2022/03/20 13:02:34;;;;;;;9.10;5.70;;;;;;;;;;784703;176;940999;-67
2022/03/20 13:05:05;;;;;;;10.40;6.30;;;;;;;;;;775466;179;919473;-67
2022/03/20 13:07:30;;;;;;;8.80;5.83;;;;;;;;;;777618;177;919585;-66
2022/03/20 13:09:56;;;;;;;13.88;6.65;;;;;;;;;;772642;179;919067;-67
2022/03/20 13:12:22;;;;;;;14.27;8.40;;;;;;;;;;779847;179;917812;-66
2022/03/20 13:14:49;;;;;;;15.25;9.52;;;;;;;;;;774306;179;919184;-67
2022/03/20 13:17:15;;;;;;;29.67;14.10;;;;;;;;;;778108;179;813845;-67
2022/03/20 13:19:42;;;;;;;12.70;7.60;;;;;;;;;;770858;181;917103;-67
2022/03/20 13:22:07;;;;;;;11.90;6.40;;;;;;;;;;769938;183;919614;-67
2022/03/20 13:24:32;;;;;;;12.40;8.00;;;;;;;;;;766599;180;947681;-67
2022/03/20 13:26:58;;;;;;;9.25;6.60;;;;;;;;;;770437;179;916303;-66
2022/03/20 13:29:24;;;;;;;13.20;6.67;;;;;;;;;;783025;176;633201;-67
2022/03/20 13:31:56;;;;;;;10.00;6.50;;;;;;;;;;769031;179;615047;-67
2022/03/20 13:34:22;;;;;;;12.23;6.67;;;;;;;;;;775553;179;628255;-67
2022/03/20 13:36:48;;;;;;;12.00;7.20;;;;;;;;;;781712;180;628990;-67
2022/03/20 13:39:13;;;;;;;10.70;6.97;;;;;;;;;;783415;178;631880;-68
2022/03/20 13:41:39;;;;;;;13.60;7.40;;;;;;;;;;780467;177;631372;-68
2022/03/20 13:44:08;;;;;;;11.68;6.95;;;;;;;;;;779788;177;918549;-66
2022/03/20 13:46:31;;;;;;;9.03;6.20;;;;;;;;;;774690;178;918976;-68
2022/03/20 13:48:57;;;;;;;10.83;7.00;;;;;;;;;;770893;178;1041535;-66
2022/03/20 13:51:24;;;;;;;9.77;6.30;;;;;;;;;;775626;178;652942;-66
2022/03/20 13:53:56;;;;;;;9.57;5.93;;;;;;;;;;778762;177;1337166;-67
2022/03/20 13:56:22;;;;;;;11.97;7.83;;;;;;;;;;777106;182;637769;-67
2022/03/20 13:58:53;;;;;;;13.57;8.00;;;;;;;;;;774785;178;622463;-67
2022/03/20 14:01:19;;;;;;;12.90;7.57;;;;;;;;;;775635;178;626301;-67
2022/03/20 14:03:45;;;;;;;10.83;6.40;;;;;;;;;;781736;179;916353;-66
2022/03/20 14:06:11;;;;;;;12.70;6.60;;;;;;;;;;783653;177;623271;-67
2022/03/20 14:08:43;;;;;;;11.47;7.33;;;;;;;;;;765352;180;909848;-67
2022/03/20 14:11:05;;;;;;;11.40;6.93;;;;;;;;;;771914;180;916667;-66
2022/03/20 14:13:31;;;;;;;15.13;8.10;;;;;;;;;;770533;179;927953;-67
2022/03/20 14:15:58;;;;;;;12.50;7.50;;;;;;;;;;770625;179;915598;-67
2022/03/20 14:18:24;;;;;;;14.97;8.47;;;;;;;;;;768458;180;928483;-66
2022/03/20 14:20:50;;;;;;;9.05;6.70;;;;;;;;;;774751;179;915897;-66
2022/03/20 14:23:18;;;;;;;10.03;5.50;;;;;;;;;;774404;180;916072;-66
2022/03/20 14:25:42;;;;;;;8.83;5.23;;;;;;;;;;772192;179;916139;-66
2022/03/20 14:28:18;;;;;;;9.47;5.47;;;;;;;;;;774289;180;914333;-67
2022/03/20 14:40:51;;;;;;;10.20;6.87;;;;;;;;;;778901;176;927886;-67
2022/03/20 14:43:17;;;;;;;8.63;5.47;;;;;;;;;;779075;179;904260;-67
2022/03/20 14:45:42;;;;;;;11.83;7.47;;;;;;;;;;770552;180;916166;-67
2022/03/20 14:48:09;;;;;;;9.30;5.77;;;;;;;;;;771165;179;915622;-67
2022/03/20 14:50:35;;;;;;;9.57;5.83;;;;;;;;;;774076;178;891618;-66
2022/03/20 14:53:01;;;;;;;10.03;5.67;;;;;;;;;;772615;179;917203;-67
2022/03/20 14:55:27;;;;;;;7.93;5.77;;;;;;;;;;771575;178;919890;-66
2022/03/20 14:57:52;;;;;;;9.20;5.10;;;;;;;;;;776551;180;916756;-66
2022/03/20 15:00:19;;;;;;;9.67;5.47;;;;;;;;;;776416;179;914817;-67